Nearby METAR Reports

 

EGTE - Exeter Airport, United Kingdom
Distance from station: NNE 25km
Updated: 17/12/2018 19:20
Partly cloudy
Partly cloudy
 Wind from S
Wind: S 17 mph , 28 km/h
Temperature: 11°C
Dew Point: 9°C
Humidity: 88%
Barometer: 1015 hPa
Clouds: Partly cloudy
Visibility: 6 miles , 10 km
Cloud details: Few Clouds 457 m
Partly cloudy 762 m
2018/12/17 19:20 EGTE 171920Z 18015KT 9999 FEW015 SCT025 11/09 Q1015
EGDY - Yeovilton (navy), United Kingdom
Distance from station: NE 83km
Updated: 17/12/2018 18:50
Partly cloudy
Partly cloudy
 Wind from S
Wind: S 13 mph , 20 km/h
Temperature: 11°C
Dew Point: 9°C
Humidity: 88%
Barometer: 1016 hPa
Clouds: Partly cloudy
Visibility: 6 miles , 10 km
Cloud details: Few Clouds 518 m
Partly cloudy 914 m
2018/12/17 18:50 EGDY 171850Z 17011KT 9999 FEW017 SCT030 11/09 Q1016 BLU
 
EGFF - Cardiff-Wales Ar, United Kingdom
Distance from station: N 99km
Updated: 17/12/2018 19:20
Mostly cloudy
Mostly cloudy
 Wind from SSE
Wind: SSE 7 mph , 11 km/h
Temperature: 10°C
Wind Chill: 8°C
Dew Point: 9°C
Humidity: 94%
Barometer: 1015 hPa
Clouds: Mostly cloudy
Visibility: 6 miles , 10 km
Cloud details: Mostly cloudy 640 m
2018/12/17 19:20 EGFF 171920Z AUTO 16006KT 9999 BKN021 10/09 Q1015
EGDX - St Athan Raf, United Kingdom
Distance from station: N 100km
Updated: 17/12/2018 18:50
Few Clouds
Few Clouds
 Wind from S
Wind: S 12 mph , 19 km/h
Temperature: 10°C
Wind Chill: 7°C
Dew Point: 8°C
Humidity: 88%
Barometer: 1014 hPa
Clouds: Few Clouds
Visibility: 6 miles , 10 km
Cloud details: Few Clouds 7620 m
2018/12/17 18:50 EGDX 171850Z AUTO 17010KT 9999 FEW250/// 10/08 Q1014
 
EGHQ - Newquay, United Kingdom
Distance from station: W 106km
Updated: 17/12/2018 19:20
Mostly cloudy
Mostly cloudy
 Wind from S
Wind: S 22 mph , 35 km/h
Temperature: 11°C
Dew Point: 10°C
Humidity: 94%
Barometer: 1013 hPa
Clouds: Mostly cloudy
Visibility: 6 miles , 9 km
Cloud details: Mostly cloudy 396 m
2018/12/17 19:20 EGHQ 171920Z 18019KT 9000 BKN013 11/10 Q1013
EGGD - Bristol/Lulsgate, United Kingdom
Distance from station: NNE 111km
Updated: 17/12/2018 19:20
Mostly cloudy
Mostly cloudy
 Wind from S
Wind: S 15 mph , 24 km/h
Temperature: 10°C
Wind Chill: 7°C
Dew Point: 9°C
Humidity: 94%
Barometer: 1015 hPa
Clouds: Mostly cloudy
Visibility: 6 miles , 10 km
Cloud details: Partly cloudy 335 m
Mostly cloudy 488 m
Mostly cloudy 792 m
2018/12/17 19:20 EGGD 171920Z AUTO 18013KT 9999 SCT011 BKN016 BKN026 10/09 Q1015
 
EGHH - Bournemouth Airp, United Kingdom
Distance from station: ENE 122km
Updated: 17/12/2018 19:20
Mostly cloudy
Mostly cloudy
 Wind from S
Wind: S 10 mph , 17 km/h
Temperature: 11°C
Dew Point: 9°C
Humidity: 88%
Barometer: 1018 hPa
Clouds: Mostly cloudy
Visibility: 6 miles , 10 km
Cloud details: Few Clouds 549 m
Mostly cloudy 640 m
2018/12/17 19:20 EGHH 171920Z 19009KT 9999 FEW018 BKN021 11/09 Q1018
EGJA - Alderney/Channel, United Kingdom
Distance from station: SE 127km
Updated: 17/12/2018 18:20
NOT Current
Few Clouds
Few Clouds
 Wind from S
Wind: S 22 mph , 35 km/h
Temperature: 11°C
Dew Point: 9°C
Humidity: 88%
Barometer: 1019 hPa
Clouds: Few Clouds
Visibility: 6 miles , 10 km
Cloud details: Few Clouds 366 m
2018/12/17 18:20 EGJA 171820Z 18019KT 9999 FEW012 11/09 Q1019
 
EGDR - Culdrose (navy), United Kingdom
Distance from station: WSW 133km
Updated: 17/12/2018 18:50
Mostly cloudy
Mostly cloudy
 Wind from S
Wind: S 21 mph , 33 km/h, Gust: 33 mph , 54 km/h
Temperature: 12°C
Dew Point: 10°C
Humidity: 88%
Barometer: 1013 hPa
Clouds: Mostly cloudy
Visibility: 6 miles , 10 km
Cloud details: Partly cloudy 305 m
Mostly cloudy 2438 m
2018/12/17 18:50 EGDR 171850Z 19018G29KT 9999 SCT010 BKN080 12/10 Q1013 GRN
EGUO - Colerne Raf, United Kingdom
Distance from station: NE 134km
Updated: 21/03/2018 08:50
NOT Current
Clear
Clear
 Wind from W
Wind: W 6 mph , 9 km/h
Temperature: 5°C
Wind Chill: 3°C
Dew Point: 1°C
Humidity: 76%
Barometer: 1032 hPa
Clouds: Clear
Visibility: 6 miles , 10 km
2018/03/21 08:50 EGUO 210850Z 27005KT 9999 NCD 05/01 Q1032 BLU NOSIG
 
EGJB - Guernsey Airport, United Kingdom
Distance from station: SSE 137km
Updated: 17/12/2018 19:20
Few Clouds
Few Clouds
 Wind from S
Wind: S 18 mph , 30 km/h
Temperature: 11°C
Dew Point: 9°C
Humidity: 88%
Barometer: 1019 hPa
Clouds: Few Clouds
Visibility: 6 miles , 10 km
Cloud details: Few Clouds 244 m
2018/12/17 19:20 EGJB 171920Z 19016KT 9999 FEW008 11/09 Q1019
EGDM - Boscombe Down, United Kingdom
Distance from station: ENE 144km
Updated: 17/12/2018 18:50
Partly cloudy
Partly cloudy
 Wind from S
Wind: S 12 mph , 19 km/h
Temperature: 9°C
Wind Chill: 6°C
Dew Point: 8°C
Humidity: 94%
Barometer: 1017 hPa
Clouds: Partly cloudy
Visibility: 6 miles , 10 km
Cloud details: Few Clouds 457 m
Partly cloudy 1341 m
2018/12/17 18:50 EGDM 171850Z AUTO 18010KT 9999 FEW015/// SCT044/// 09/08 Q1017
 
EGOP - Pembry Sands, United Kingdom
Distance from station: NNW 147km
Updated: 17/12/2018 18:50
Mostly cloudy
Mostly cloudy
 Wind from S
Wind: S 21 mph , 33 km/h
Temperature: 11°C
Dew Point: 9°C
Humidity: 88%
Barometer: 1013 hPa
Clouds: Mostly cloudy
Visibility: 4 miles , 6 km
Cloud details: Partly cloudy 549 m
Mostly cloudy 1067 m
2018/12/17 18:50 EGOP 171850Z AUTO 17018KT 6000 // SCT018/// BKN035/// 11/09 Q1013
EGVP - Middle Wallop, United Kingdom
Distance from station: ENE 153km
Updated: 17/12/2018 18:50
Mostly cloudy
Mostly cloudy
 Wind from S
Wind: S 13 mph , 20 km/h
Temperature: 10°C
Wind Chill: 7°C
Dew Point: 9°C
Humidity: 94%
Barometer: 1018 hPa
Clouds: Mostly cloudy
Visibility: 6 miles , 10 km
Cloud details: Few Clouds 335 m
Partly cloudy 1189 m
Mostly cloudy 3962 m
2018/12/17 18:50 EGVP 171850Z AUTO 18011KT 9999 // FEW011/// SCT039/// BKN130/// 10/09 Q1018
 
EGHI - Southampton Wx C, United Kingdom
Distance from station: ENE 159km
Updated: 17/12/2018 19:20
Partly cloudy
Partly cloudy
 Wind from S
Wind: S 9 mph , 15 km/h
Temperature: 10°C
Wind Chill: 8°C
Dew Point: 8°C
Humidity: 88%
Barometer: 1019 hPa
Clouds: Partly cloudy
Visibility: 6 miles , 10 km
Cloud details: Partly cloudy 671 m
2018/12/17 19:20 EGHI 171920Z 18008KT 140V210 9999 SCT022 10/08 Q1019